sensor_id;sensor_type;location;lat;lon;timestamp;temperature;humidity
46231;DHT22;31949;51.404;-0.038;2023-07-13T00:01:09;16.70;99.90
46231;DHT22;31949;51.404;-0.038;2023-07-13T00:03:37;16.70;99.90
46231;DHT22;31949;51.404;-0.038;2023-07-13T00:06:08;16.60;99.90
46231;DHT22;31949;51.404;-0.038;2023-07-13T00:08:36;16.60;99.90
46231;DHT22;31949;51.404;-0.038;2023-07-13T00:11:04;16.60;99.90
46231;DHT22;31949;51.404;-0.038;2023-07-13T00:13:31;16.50;99.90
46231;DHT22;31949;51.404;-0.038;2023-07-13T00:15:59;16.50;99.90
46231;DHT22;31949;51.404;-0.038;2023-07-13T00:18:26;16.50;99.90
46231;DHT22;31949;51.404;-0.038;2023-07-13T00:20:57;16.50;99.90
46231;DHT22;31949;51.404;-0.038;2023-07-13T00:23:34;16.50;99.90
46231;DHT22;31949;51.404;-0.038;2023-07-13T00:26:02;16.40;99.90
46231;DHT22;31949;51.404;-0.038;2023-07-13T00:28:30;16.40;99.90
46231;DHT22;31949;51.404;-0.038;2023-07-13T00:30:58;16.30;99.90
46231;DHT22;31949;51.404;-0.038;2023-07-13T00:33:26;16.30;99.90
46231;DHT22;31949;51.404;-0.038;2023-07-13T00:35:55;16.30;99.90
46231;DHT22;31949;51.404;-0.038;2023-07-13T00:38:23;16.30;99.90
46231;DHT22;31949;51.404;-0.038;2023-07-13T00:40:50;16.40;99.90
46231;DHT22;31949;51.404;-0.038;2023-07-13T00:43:20;16.30;99.90
46231;DHT22;31949;51.404;-0.038;2023-07-13T00:48:20;16.30;99.90
46231;DHT22;31949;51.404;-0.038;2023-07-13T00:50:51;16.30;99.90
46231;DHT22;31949;51.404;-0.038;2023-07-13T00:53:20;16.20;99.90
46231;DHT22;31949;51.404;-0.038;2023-07-13T00:55:49;16.20;99.90
46231;DHT22;31949;51.404;-0.038;2023-07-13T00:58:17;16.10;99.90
46231;DHT22;31949;51.404;-0.038;2023-07-13T01:00:45;16.10;99.90
46231;DHT22;31949;51.404;-0.038;2023-07-13T01:03:14;16.00;99.90
46231;DHT22;31949;51.404;-0.038;2023-07-13T01:05:42;16.00;99.90
46231;DHT22;31949;51.404;-0.038;2023-07-13T01:08:10;16.00;99.90
46231;DHT22;31949;51.404;-0.038;2023-07-13T01:10:37;16.00;99.90
46231;DHT22;31949;51.404;-0.038;2023-07-13T01:13:09;16.10;99.90
46231;DHT22;31949;51.404;-0.038;2023-07-13T01:15:41;16.00;99.90
46231;DHT22;31949;51.404;-0.038;2023-07-13T01:18:18;16.00;99.90
46231;DHT22;31949;51.404;-0.038;2023-07-13T01:21:00;15.90;99.90
46231;DHT22;31949;51.404;-0.038;2023-07-13T01:23:29;15.90;99.90
46231;DHT22;31949;51.404;-0.038;2023-07-13T01:25:57;15.90;99.90
46231;DHT22;31949;51.404;-0.038;2023-07-13T01:28:26;16.00;99.90
46231;DHT22;31949;51.404;-0.038;2023-07-13T01:30:56;16.00;99.90
46231;DHT22;31949;51.404;-0.038;2023-07-13T01:33:24;15.80;99.90
46231;DHT22;31949;51.404;-0.038;2023-07-13T01:35:51;15.80;99.90
46231;DHT22;31949;51.404;-0.038;2023-07-13T01:38:21;15.80;99.90
46231;DHT22;31949;51.404;-0.038;2023-07-13T01:40:48;15.80;99.90
46231;DHT22;31949;51.404;-0.038;2023-07-13T01:43:16;15.80;99.90
46231;DHT22;31949;51.404;-0.038;2023-07-13T01:45:44;15.80;99.90
46231;DHT22;31949;51.404;-0.038;2023-07-13T01:48:12;15.70;99.90
46231;DHT22;31949;51.404;-0.038;2023-07-13T01:50:41;15.70;99.90
46231;DHT22;31949;51.404;-0.038;2023-07-13T01:53:08;15.70;99.90
46231;DHT22;31949;51.404;-0.038;2023-07-13T01:55:36;15.70;99.90
46231;DHT22;31949;51.404;-0.038;2023-07-13T01:58:04;15.60;99.90
46231;DHT22;31949;51.404;-0.038;2023-07-13T02:00:32;15.60;99.90
46231;DHT22;31949;51.404;-0.038;2023-07-13T02:03:01;15.60;99.90
46231;DHT22;31949;51.404;-0.038;2023-07-13T02:05:31;15.50;99.90
46231;DHT22;31949;51.404;-0.038;2023-07-13T02:07:59;15.60;99.90
46231;DHT22;31949;51.404;-0.038;2023-07-13T02:10:26;15.70;99.90
46231;DHT22;31949;51.404;-0.038;2023-07-13T02:12:54;15.60;99.90
46231;DHT22;31949;51.404;-0.038;2023-07-13T02:15:21;15.50;99.90
46231;DHT22;31949;51.404;-0.038;2023-07-13T02:17:48;15.50;99.90
46231;DHT22;31949;51.404;-0.038;2023-07-13T02:20:15;15.50;99.90
46231;DHT22;31949;51.404;-0.038;2023-07-13T02:22:42;15.50;99.90
46231;DHT22;31949;51.404;-0.038;2023-07-13T02:25:10;15.50;99.90
46231;DHT22;31949;51.404;-0.038;2023-07-13T02:27:37;15.50;99.90
46231;DHT22;31949;51.404;-0.038;2023-07-13T02:30:04;15.50;99.90
46231;DHT22;31949;51.404;-0.038;2023-07-13T02:32:32;15.40;99.90
46231;DHT22;31949;51.404;-0.038;2023-07-13T02:34:59;15.50;99.90
46231;DHT22;31949;51.404;-0.038;2023-07-13T02:37:28;15.40;99.90
46231;DHT22;31949;51.404;-0.038;2023-07-13T02:39:56;15.40;99.90
46231;DHT22;31949;51.404;-0.038;2023-07-13T02:42:24;15.40;99.90
46231;DHT22;31949;51.404;-0.038;2023-07-13T02:44:51;15.40;99.90
46231;DHT22;31949;51.404;-0.038;2023-07-13T02:47:18;15.30;99.90
46231;DHT22;31949;51.404;-0.038;2023-07-13T02:49:45;15.30;99.90
46231;DHT22;31949;51.404;-0.038;2023-07-13T02:52:13;15.30;99.90
46231;DHT22;31949;51.404;-0.038;2023-07-13T02:54:40;15.40;99.90
46231;DHT22;31949;51.404;-0.038;2023-07-13T02:57:07;15.40;99.90
46231;DHT22;31949;51.404;-0.038;2023-07-13T02:59:34;15.40;99.90
46231;DHT22;31949;51.404;-0.038;2023-07-13T03:02:02;15.40;99.90
46231;DHT22;31949;51.404;-0.038;2023-07-13T03:04:30;15.40;99.90
46231;DHT22;31949;51.404;-0.038;2023-07-13T03:06:57;15.30;99.90
46231;DHT22;31949;51.404;-0.038;2023-07-13T03:09:33;15.50;99.90
46231;DHT22;31949;51.404;-0.038;2023-07-13T03:12:02;15.40;99.90
46231;DHT22;31949;51.404;-0.038;2023-07-13T03:14:31;15.40;99.90
46231;DHT22;31949;51.404;-0.038;2023-07-13T03:17:00;15.30;99.90
46231;DHT22;31949;51.404;-0.038;2023-07-13T03:19:31;15.30;99.90
46231;DHT22;31949;51.404;-0.038;2023-07-13T03:21:58;15.30;99.90
46231;DHT22;31949;51.404;-0.038;2023-07-13T03:24:26;15.20;99.90
46231;DHT22;31949;51.404;-0.038;2023-07-13T03:26:53;15.30;99.90
46231;DHT22;31949;51.404;-0.038;2023-07-13T03:29:21;15.20;99.90
46231;DHT22;31949;51.404;-0.038;2023-07-13T03:31:49;15.20;99.90
46231;DHT22;31949;51.404;-0.038;2023-07-13T03:34:17;15.20;99.90
46231;DHT22;31949;51.404;-0.038;2023-07-13T03:36:44;15.20;99.90
46231;DHT22;31949;51.404;-0.038;2023-07-13T03:39:12;15.20;99.90
46231;DHT22;31949;51.404;-0.038;2023-07-13T03:41:49;15.20;99.90
46231;DHT22;31949;51.404;-0.038;2023-07-13T03:44:17;15.20;99.90
46231;DHT22;31949;51.404;-0.038;2023-07-13T03:46:47;15.10;99.90
46231;DHT22;31949;51.404;-0.038;2023-07-13T03:49:15;15.10;99.90
46231;DHT22;31949;51.404;-0.038;2023-07-13T03:51:42;15.10;99.90
46231;DHT22;31949;51.404;-0.038;2023-07-13T03:54:09;15.10;99.90
46231;DHT22;31949;51.404;-0.038;2023-07-13T03:56:37;15.00;99.90
46231;DHT22;31949;51.404;-0.038;2023-07-13T03:59:06;15.00;99.90
46231;DHT22;31949;51.404;-0.038;2023-07-13T04:01:33;15.00;99.90
46231;DHT22;31949;51.404;-0.038;2023-07-13T04:04:01;15.00;99.90
46231;DHT22;31949;51.404;-0.038;2023-07-13T04:06:31;15.10;99.90
46231;DHT22;31949;51.404;-0.038;2023-07-13T04:09:00;15.00;99.90
46231;DHT22;31949;51.404;-0.038;2023-07-13T04:11:29;15.00;99.90
46231;DHT22;31949;51.404;-0.038;2023-07-13T04:13:56;15.00;99.90
46231;DHT22;31949;51.404;-0.038;2023-07-13T04:16:24;14.90;99.90
46231;DHT22;31949;51.404;-0.038;2023-07-13T04:18:52;15.00;99.90
46231;DHT22;31949;51.404;-0.038;2023-07-13T04:21:28;15.00;99.90
46231;DHT22;31949;51.404;-0.038;2023-07-13T04:23:56;15.00;99.90
46231;DHT22;31949;51.404;-0.038;2023-07-13T04:26:24;14.90;99.90
46231;DHT22;31949;51.404;-0.038;2023-07-13T04:28:51;14.90;99.90
46231;DHT22;31949;51.404;-0.038;2023-07-13T04:31:19;15.00;99.90
46231;DHT22;31949;51.404;-0.038;2023-07-13T04:33:47;15.00;99.90
46231;DHT22;31949;51.404;-0.038;2023-07-13T04:36:15;14.90;99.90
46231;DHT22;31949;51.404;-0.038;2023-07-13T04:38:43;14.90;99.90
46231;DHT22;31949;51.404;-0.038;2023-07-13T04:41:11;15.00;99.90
46231;DHT22;31949;51.404;-0.038;2023-07-13T04:43:39;15.00;99.90
46231;DHT22;31949;51.404;-0.038;2023-07-13T04:46:08;14.90;99.90
46231;DHT22;31949;51.404;-0.038;2023-07-13T04:48:37;14.90;99.90
46231;DHT22;31949;51.404;-0.038;2023-07-13T04:51:05;15.00;99.90
46231;DHT22;31949;51.404;-0.038;2023-07-13T04:53:34;15.00;99.90
46231;DHT22;31949;51.404;-0.038;2023-07-13T04:56:03;14.90;99.90
46231;DHT22;31949;51.404;-0.038;2023-07-13T04:58:30;15.00;99.90
46231;DHT22;31949;51.404;-0.038;2023-07-13T05:01:04;15.00;99.90
46231;DHT22;31949;51.404;-0.038;2023-07-13T05:03:32;15.10;99.90
46231;DHT22;31949;51.404;-0.038;2023-07-13T05:06:03;15.10;99.90
46231;DHT22;31949;51.404;-0.038;2023-07-13T05:08:30;15.00;99.90
46231;DHT22;31949;51.404;-0.038;2023-07-13T05:11:00;15.00;99.90
46231;DHT22;31949;51.404;-0.038;2023-07-13T05:13:28;15.00;99.90
46231;DHT22;31949;51.404;-0.038;2023-07-13T05:15:59;15.10;99.90
46231;DHT22;31949;51.404;-0.038;2023-07-13T05:18:27;15.20;99.90
46231;DHT22;31949;51.404;-0.038;2023-07-13T05:20:59;15.20;99.90
46231;DHT22;31949;51.404;-0.038;2023-07-13T05:23:27;15.30;99.90
46231;DHT22;31949;51.404;-0.038;2023-07-13T05:25:54;15.30;99.90
46231;DHT22;31949;51.404;-0.038;2023-07-13T05:28:22;15.30;99.90
46231;DHT22;31949;51.404;-0.038;2023-07-13T05:30:50;15.30;99.90
46231;DHT22;31949;51.404;-0.038;2023-07-13T05:33:17;15.40;99.90
46231;DHT22;31949;51.404;-0.038;2023-07-13T05:35:45;15.50;99.90
46231;DHT22;31949;51.404;-0.038;2023-07-13T05:38:12;15.60;99.90
46231;DHT22;31949;51.404;-0.038;2023-07-13T05:40:42;15.60;99.90
46231;DHT22;31949;51.404;-0.038;2023-07-13T05:43:09;15.60;99.90
46231;DHT22;31949;51.404;-0.038;2023-07-13T05:45:36;15.60;99.90
46231;DHT22;31949;51.404;-0.038;2023-07-13T05:48:05;15.70;99.90
46231;DHT22;31949;51.404;-0.038;2023-07-13T05:50:32;15.80;99.90
46231;DHT22;31949;51.404;-0.038;2023-07-13T05:53:03;15.80;99.90
46231;DHT22;31949;51.404;-0.038;2023-07-13T05:55:30;15.90;99.90
46231;DHT22;31949;51.404;-0.038;2023-07-13T05:57:57;16.00;99.90
46231;DHT22;31949;51.404;-0.038;2023-07-13T06:00:25;16.00;99.90
46231;DHT22;31949;51.404;-0.038;2023-07-13T06:02:53;16.00;99.90
46231;DHT22;31949;51.404;-0.038;2023-07-13T06:05:20;16.20;99.90
46231;DHT22;31949;51.404;-0.038;2023-07-13T06:07:47;16.30;99.90
46231;DHT22;31949;51.404;-0.038;2023-07-13T06:10:15;16.40;99.90
46231;DHT22;31949;51.404;-0.038;2023-07-13T06:12:42;16.60;99.90
46231;DHT22;31949;51.404;-0.038;2023-07-13T06:15:10;16.80;99.90
46231;DHT22;31949;51.404;-0.038;2023-07-13T06:17:37;16.90;99.90
46231;DHT22;31949;51.404;-0.038;2023-07-13T06:20:05;17.00;99.90
46231;DHT22;31949;51.404;-0.038;2023-07-13T06:22:32;17.10;99.90
46231;DHT22;31949;51.404;-0.038;2023-07-13T06:25:00;17.20;99.90
46231;DHT22;31949;51.404;-0.038;2023-07-13T06:27:27;17.30;99.90
46231;DHT22;31949;51.404;-0.038;2023-07-13T06:29:57;17.50;99.90
46231;DHT22;31949;51.404;-0.038;2023-07-13T06:32:24;17.50;99.90
46231;DHT22;31949;51.404;-0.038;2023-07-13T06:34:51;17.70;99.90
46231;DHT22;31949;51.404;-0.038;2023-07-13T06:37:19;17.70;99.90
46231;DHT22;31949;51.404;-0.038;2023-07-13T06:39:46;17.60;99.90
46231;DHT22;31949;51.404;-0.038;2023-07-13T06:42:15;17.60;99.90
46231;DHT22;31949;51.404;-0.038;2023-07-13T06:44:43;17.90;99.90
46231;DHT22;31949;51.404;-0.038;2023-07-13T06:47:10;18.10;99.90
46231;DHT22;31949;51.404;-0.038;2023-07-13T06:49:37;18.20;99.90
46231;DHT22;31949;51.404;-0.038;2023-07-13T06:52:05;18.50;99.90
46231;DHT22;31949;51.404;-0.038;2023-07-13T06:54:32;18.70;99.90
46231;DHT22;31949;51.404;-0.038;2023-07-13T06:57:01;18.50;99.90
46231;DHT22;31949;51.404;-0.038;2023-07-13T06:59:28;18.50;99.90
46231;DHT22;31949;51.404;-0.038;2023-07-13T07:01:55;18.40;99.90
46231;DHT22;31949;51.404;-0.038;2023-07-13T07:04:22;18.50;99.90
46231;DHT22;31949;51.404;-0.038;2023-07-13T07:06:50;18.50;99.90
46231;DHT22;31949;51.404;-0.038;2023-07-13T07:09:17;18.50;99.90
46231;DHT22;31949;51.404;-0.038;2023-07-13T07:11:44;18.60;99.90
46231;DHT22;31949;51.404;-0.038;2023-07-13T07:14:29;18.90;99.90
46231;DHT22;31949;51.404;-0.038;2023-07-13T07:16:56;19.20;99.90
46231;DHT22;31949;51.404;-0.038;2023-07-13T07:19:27;19.10;99.90
46231;DHT22;31949;51.404;-0.038;2023-07-13T07:21:54;19.30;99.90
46231;DHT22;31949;51.404;-0.038;2023-07-13T07:24:22;19.30;99.90
46231;DHT22;31949;51.404;-0.038;2023-07-13T07:26:49;19.40;99.90
46231;DHT22;31949;51.404;-0.038;2023-07-13T07:29:19;19.30;99.90
46231;DHT22;31949;51.404;-0.038;2023-07-13T07:31:49;19.50;99.90
46231;DHT22;31949;51.404;-0.038;2023-07-13T07:34:31;19.40;99.90
46231;DHT22;31949;51.404;-0.038;2023-07-13T07:37:01;19.60;99.90
46231;DHT22;31949;51.404;-0.038;2023-07-13T07:39:32;19.50;99.90
46231;DHT22;31949;51.404;-0.038;2023-07-13T07:41:59;19.50;99.90
46231;DHT22;31949;51.404;-0.038;2023-07-13T07:44:26;19.50;99.90
46231;DHT22;31949;51.404;-0.038;2023-07-13T07:46:55;19.50;99.90
46231;DHT22;31949;51.404;-0.038;2023-07-13T07:49:22;19.30;99.90
46231;DHT22;31949;51.404;-0.038;2023-07-13T07:51:50;19.10;99.90
46231;DHT22;31949;51.404;-0.038;2023-07-13T07:54:17;19.00;99.90
46231;DHT22;31949;51.404;-0.038;2023-07-13T07:57:05;19.20;99.90
46231;DHT22;31949;51.404;-0.038;2023-07-13T07:59:36;19.30;99.90
46231;DHT22;31949;51.404;-0.038;2023-07-13T08:02:09;19.40;99.90
46231;DHT22;31949;51.404;-0.038;2023-07-13T08:04:57;19.40;99.90
46231;DHT22;31949;51.404;-0.038;2023-07-13T08:07:27;19.40;99.90
46231;DHT22;31949;51.404;-0.038;2023-07-13T08:09:55;19.20;99.90
46231;DHT22;31949;51.404;-0.038;2023-07-13T08:12:22;19.20;99.90
46231;DHT22;31949;51.404;-0.038;2023-07-13T08:14:52;19.10;99.90
46231;DHT22;31949;51.404;-0.038;2023-07-13T08:17:24;19.30;99.90
46231;DHT22;31949;51.404;-0.038;2023-07-13T08:19:52;19.30;99.90
46231;DHT22;31949;51.404;-0.038;2023-07-13T08:22:20;19.30;99.90
46231;DHT22;31949;51.404;-0.038;2023-07-13T08:24:47;19.30;99.90
46231;DHT22;31949;51.404;-0.038;2023-07-13T08:27:23;19.20;99.90
46231;DHT22;31949;51.404;-0.038;2023-07-13T08:29:51;19.40;99.90
46231;DHT22;31949;51.404;-0.038;2023-07-13T08:32:20;19.50;99.90
46231;DHT22;31949;51.404;-0.038;2023-07-13T08:34:48;19.40;99.90
46231;DHT22;31949;51.404;-0.038;2023-07-13T08:37:16;19.30;99.90
46231;DHT22;31949;51.404;-0.038;2023-07-13T08:39:44;19.40;99.90
46231;DHT22;31949;51.404;-0.038;2023-07-13T08:42:39;19.30;99.90
46231;DHT22;31949;51.404;-0.038;2023-07-13T08:47:55;19.60;99.90
46231;DHT22;31949;51.404;-0.038;2023-07-13T08:50:41;19.80;99.90
46231;DHT22;31949;51.404;-0.038;2023-07-13T08:53:45;19.80;99.90
46231;DHT22;31949;51.404;-0.038;2023-07-13T08:56:18;19.90;99.90
46231;DHT22;31949;51.404;-0.038;2023-07-13T08:58:51;19.90;99.90
46231;DHT22;31949;51.404;-0.038;2023-07-13T09:04:14;19.90;99.90
46231;DHT22;31949;51.404;-0.038;2023-07-13T09:06:57;19.90;99.90
46231;DHT22;31949;51.404;-0.038;2023-07-13T09:12:43;20.30;99.90
46231;DHT22;31949;51.404;-0.038;2023-07-13T09:15:39;20.60;99.90
46231;DHT22;31949;51.404;-0.038;2023-07-13T09:20:56;20.40;99.90
46231;DHT22;31949;51.404;-0.038;2023-07-13T09:23:27;20.50;99.90
46231;DHT22;31949;51.404;-0.038;2023-07-13T09:26:22;20.70;99.90
46231;DHT22;31949;51.404;-0.038;2023-07-13T09:29:20;20.90;99.90
46231;DHT22;31949;51.404;-0.038;2023-07-13T09:31:53;20.80;99.90
46231;DHT22;31949;51.404;-0.038;2023-07-13T09:34:21;20.70;99.90
46231;DHT22;31949;51.404;-0.038;2023-07-13T09:36:48;20.70;99.90
46231;DHT22;31949;51.404;-0.038;2023-07-13T09:39:37;20.70;99.90
46231;DHT22;31949;51.404;-0.038;2023-07-13T09:44:56;21.20;99.90
46231;DHT22;31949;51.404;-0.038;2023-07-13T09:47:28;21.00;99.90
46231;DHT22;31949;51.404;-0.038;2023-07-13T09:50:02;21.10;99.90
46231;DHT22;31949;51.404;-0.038;2023-07-13T09:55:30;21.20;99.90
46231;DHT22;31949;51.404;-0.038;2023-07-13T09:58:24;21.20;99.90
46231;DHT22;31949;51.404;-0.038;2023-07-13T10:00:57;21.30;99.90
46231;DHT22;31949;51.404;-0.038;2023-07-13T10:03:33;21.50;99.90
46231;DHT22;31949;51.404;-0.038;2023-07-13T10:06:20;20.90;99.90
46231;DHT22;31949;51.404;-0.038;2023-07-13T10:08:52;20.90;99.90
46231;DHT22;31949;51.404;-0.038;2023-07-13T10:11:23;20.80;99.90
46231;DHT22;31949;51.404;-0.038;2023-07-13T10:13:59;21.00;99.90
46231;DHT22;31949;51.404;-0.038;2023-07-13T10:16:30;21.10;99.90
46231;DHT22;31949;51.404;-0.038;2023-07-13T10:19:24;21.00;99.90
46231;DHT22;31949;51.404;-0.038;2023-07-13T10:24:49;21.20;99.90
46231;DHT22;31949;51.404;-0.038;2023-07-13T10:27:23;21.30;99.90
46231;DHT22;31949;51.404;-0.038;2023-07-13T10:30:17;21.40;99.90
46231;DHT22;31949;51.404;-0.038;2023-07-13T10:32:47;21.20;99.90
46231;DHT22;31949;51.404;-0.038;2023-07-13T10:35:16;21.20;99.90
46231;DHT22;31949;51.404;-0.038;2023-07-13T10:38:15;21.20;99.90
46231;DHT22;31949;51.404;-0.038;2023-07-13T10:40:54;20.80;99.90
46231;DHT22;31949;51.404;-0.038;2023-07-13T10:43:27;20.90;99.90
46231;DHT22;31949;51.404;-0.038;2023-07-13T10:45:56;20.90;99.90
46231;DHT22;31949;51.404;-0.038;2023-07-13T10:48:23;21.10;99.90
46231;DHT22;31949;51.404;-0.038;2023-07-13T10:50:53;21.10;99.90
46231;DHT22;31949;51.404;-0.038;2023-07-13T10:53:31;21.10;99.90
46231;DHT22;31949;51.404;-0.038;2023-07-13T10:58:43;21.30;99.90
46231;DHT22;31949;51.404;-0.038;2023-07-13T11:01:20;21.40;99.90
46231;DHT22;31949;51.404;-0.038;2023-07-13T11:03:55;21.50;99.90
46231;DHT22;31949;51.404;-0.038;2023-07-13T11:09:45;21.60;99.90
46231;DHT22;31949;51.404;-0.038;2023-07-13T11:11:47;21.60;99.90
46231;DHT22;31949;51.404;-0.038;2023-07-13T11:30:59;21.90;99.90
46231;DHT22;31949;51.404;-0.038;2023-07-13T11:33:55;22.20;99.90
46231;DHT22;31949;51.404;-0.038;2023-07-13T11:36:27;22.20;99.90
46231;DHT22;31949;51.404;-0.038;2023-07-13T11:41:42;22.00;99.90
46231;DHT22;31949;51.404;-0.038;2023-07-13T11:44:17;21.90;99.90
46231;DHT22;31949;51.404;-0.038;2023-07-13T11:46:50;21.90;99.90
46231;DHT22;31949;51.404;-0.038;2023-07-13T11:49:23;21.90;99.90
46231;DHT22;31949;51.404;-0.038;2023-07-13T11:51:52;21.80;99.90
46231;DHT22;31949;51.404;-0.038;2023-07-13T11:57:23;21.80;99.90
46231;DHT22;31949;51.404;-0.038;2023-07-13T11:59:53;21.80;99.90
46231;DHT22;31949;51.404;-0.038;2023-07-13T12:04:55;21.50;99.90
46231;DHT22;31949;51.404;-0.038;2023-07-13T12:07:23;21.10;99.90
46231;DHT22;31949;51.404;-0.038;2023-07-13T12:09:50;20.70;99.90
46231;DHT22;31949;51.404;-0.038;2023-07-13T12:12:21;20.30;99.90
46231;DHT22;31949;51.404;-0.038;2023-07-13T12:14:52;20.20;99.90
46231;DHT22;31949;51.404;-0.038;2023-07-13T12:17:22;20.20;99.90
46231;DHT22;31949;51.404;-0.038;2023-07-13T12:19:51;20.30;99.90
46231;DHT22;31949;51.404;-0.038;2023-07-13T12:22:20;20.30;99.90
46231;DHT22;31949;51.404;-0.038;2023-07-13T12:24:48;20.40;99.90
46231;DHT22;31949;51.404;-0.038;2023-07-13T12:27:22;20.40;99.90
46231;DHT22;31949;51.404;-0.038;2023-07-13T12:30:02;20.60;99.90
46231;DHT22;31949;51.404;-0.038;2023-07-13T12:32:32;20.80;99.90
46231;DHT22;31949;51.404;-0.038;2023-07-13T12:35:16;21.00;99.90
46231;DHT22;31949;51.404;-0.038;2023-07-13T12:37:50;21.10;99.90
46231;DHT22;31949;51.404;-0.038;2023-07-13T12:40:20;21.30;99.90
46231;DHT22;31949;51.404;-0.038;2023-07-13T12:42:51;21.20;99.90
46231;DHT22;31949;51.404;-0.038;2023-07-13T12:45:24;21.10;99.90
46231;DHT22;31949;51.404;-0.038;2023-07-13T12:47:58;21.10;99.90
46231;DHT22;31949;51.404;-0.038;2023-07-13T12:50:30;21.10;99.90
46231;DHT22;31949;51.404;-0.038;2023-07-13T12:53:01;21.10;99.90
46231;DHT22;31949;51.404;-0.038;2023-07-13T12:55:30;21.10;99.90
46231;DHT22;31949;51.404;-0.038;2023-07-13T12:58:03;21.00;99.90
46231;DHT22;31949;51.404;-0.038;2023-07-13T13:00:35;21.10;99.90
46231;DHT22;31949;51.404;-0.038;2023-07-13T13:03:09;21.00;99.90
46231;DHT22;31949;51.404;-0.038;2023-07-13T13:06:03;21.10;99.90
46231;DHT22;31949;51.404;-0.038;2023-07-13T13:08:33;21.10;99.90
46231;DHT22;31949;51.404;-0.038;2023-07-13T13:11:02;21.30;99.90
46231;DHT22;31949;51.404;-0.038;2023-07-13T13:13:29;21.20;99.90
46231;DHT22;31949;51.404;-0.038;2023-07-13T13:18:43;21.10;99.90
46231;DHT22;31949;51.404;-0.038;2023-07-13T13:21:11;21.00;99.90
46231;DHT22;31949;51.404;-0.038;2023-07-13T13:23:38;20.90;99.90
46231;DHT22;31949;51.404;-0.038;2023-07-13T13:26:14;21.00;99.90
46231;DHT22;31949;51.404;-0.038;2023-07-13T13:28:45;21.20;99.90
46231;DHT22;31949;51.404;-0.038;2023-07-13T13:31:12;21.30;99.90
46231;DHT22;31949;51.404;-0.038;2023-07-13T13:33:42;21.30;99.90
46231;DHT22;31949;51.404;-0.038;2023-07-13T13:36:19;21.50;99.90
46231;DHT22;31949;51.404;-0.038;2023-07-13T13:38:48;21.70;99.90
46231;DHT22;31949;51.404;-0.038;2023-07-13T13:41:16;21.90;99.90
46231;DHT22;31949;51.404;-0.038;2023-07-13T13:43:44;22.00;99.90
46231;DHT22;31949;51.404;-0.038;2023-07-13T13:46:18;22.20;99.90
46231;DHT22;31949;51.404;-0.038;2023-07-13T13:48:46;22.10;99.90
46231;DHT22;31949;51.404;-0.038;2023-07-13T13:51:19;22.10;99.90
46231;DHT22;31949;51.404;-0.038;2023-07-13T13:53:48;22.20;99.90
46231;DHT22;31949;51.404;-0.038;2023-07-13T13:56:17;22.20;99.90
46231;DHT22;31949;51.404;-0.038;2023-07-13T13:58:45;22.00;99.90
46231;DHT22;31949;51.404;-0.038;2023-07-13T14:01:19;21.80;99.90
46231;DHT22;31949;51.404;-0.038;2023-07-13T14:03:47;21.80;99.90
46231;DHT22;31949;51.404;-0.038;2023-07-13T14:06:21;21.80;99.90
46231;DHT22;31949;51.404;-0.038;2023-07-13T14:08:48;21.70;99.90
46231;DHT22;31949;51.404;-0.038;2023-07-13T14:11:17;21.60;99.90
46231;DHT22;31949;51.404;-0.038;2023-07-13T14:13:54;21.50;99.90
46231;DHT22;31949;51.404;-0.038;2023-07-13T14:16:25;21.50;99.90
46231;DHT22;31949;51.404;-0.038;2023-07-13T14:18:55;21.40;99.90
46231;DHT22;31949;51.404;-0.038;2023-07-13T14:21:27;21.40;99.90
46231;DHT22;31949;51.404;-0.038;2023-07-13T14:23:55;21.40;99.90
46231;DHT22;31949;51.404;-0.038;2023-07-13T14:26:24;21.40;99.90
46231;DHT22;31949;51.404;-0.038;2023-07-13T14:28:56;21.50;99.90
46231;DHT22;31949;51.404;-0.038;2023-07-13T14:31:26;21.70;99.90
46231;DHT22;31949;51.404;-0.038;2023-07-13T14:33:57;22.00;99.90
46231;DHT22;31949;51.404;-0.038;2023-07-13T14:36:30;22.10;99.90
46231;DHT22;31949;51.404;-0.038;2023-07-13T14:39:00;22.20;99.90
46231;DHT22;31949;51.404;-0.038;2023-07-13T14:41:28;22.50;99.90
46231;DHT22;31949;51.404;-0.038;2023-07-13T14:43:55;22.50;99.90
46231;DHT22;31949;51.404;-0.038;2023-07-13T14:46:31;22.50;99.90
46231;DHT22;31949;51.404;-0.038;2023-07-13T14:51:34;22.50;99.90
46231;DHT22;31949;51.404;-0.038;2023-07-13T14:54:04;22.70;99.90
46231;DHT22;31949;51.404;-0.038;2023-07-13T14:56:32;22.80;99.90
46231;DHT22;31949;51.404;-0.038;2023-07-13T14:58:59;22.80;99.90
46231;DHT22;31949;51.404;-0.038;2023-07-13T15:01:26;22.90;99.90
46231;DHT22;31949;51.404;-0.038;2023-07-13T15:03:54;23.00;99.90
46231;DHT22;31949;51.404;-0.038;2023-07-13T15:06:21;22.90;99.90
46231;DHT22;31949;51.404;-0.038;2023-07-13T15:08:48;22.90;99.90
46231;DHT22;31949;51.404;-0.038;2023-07-13T15:11:16;22.90;99.90
46231;DHT22;31949;51.404;-0.038;2023-07-13T15:13:44;22.80;99.90
46231;DHT22;31949;51.404;-0.038;2023-07-13T15:16:24;23.00;99.90
46231;DHT22;31949;51.404;-0.038;2023-07-13T15:18:51;23.00;99.90
46231;DHT22;31949;51.404;-0.038;2023-07-13T15:21:24;23.20;99.90
46231;DHT22;31949;51.404;-0.038;2023-07-13T15:23:51;23.00;99.20
46231;DHT22;31949;51.404;-0.038;2023-07-13T15:26:22;22.80;99.30
46231;DHT22;31949;51.404;-0.038;2023-07-13T15:28:49;22.80;99.90
46231;DHT22;31949;51.404;-0.038;2023-07-13T15:31:25;22.80;99.90
46231;DHT22;31949;51.404;-0.038;2023-07-13T15:33:56;22.90;99.90
46231;DHT22;31949;51.404;-0.038;2023-07-13T15:36:25;23.00;99.90
46231;DHT22;31949;51.404;-0.038;2023-07-13T15:38:56;23.00;99.90
46231;DHT22;31949;51.404;-0.038;2023-07-13T15:41:26;23.00;99.80
46231;DHT22;31949;51.404;-0.038;2023-07-13T15:43:56;23.00;99.90
46231;DHT22;31949;51.404;-0.038;2023-07-13T15:46:27;23.10;99.60
46231;DHT22;31949;51.404;-0.038;2023-07-13T15:48:57;22.90;99.90
46231;DHT22;31949;51.404;-0.038;2023-07-13T15:51:28;22.70;99.80
46231;DHT22;31949;51.404;-0.038;2023-07-13T15:53:58;22.60;99.90
46231;DHT22;31949;51.404;-0.038;2023-07-13T15:56:27;22.60;99.90
46231;DHT22;31949;51.404;-0.038;2023-07-13T15:58:58;22.70;99.90
46231;DHT22;31949;51.404;-0.038;2023-07-13T16:01:26;22.60;99.90
46231;DHT22;31949;51.404;-0.038;2023-07-13T16:03:54;22.50;99.90
46231;DHT22;31949;51.404;-0.038;2023-07-13T16:06:36;22.50;99.90
46231;DHT22;31949;51.404;-0.038;2023-07-13T16:09:07;22.60;99.90
46231;DHT22;31949;51.404;-0.038;2023-07-13T16:11:38;22.60;99.90
46231;DHT22;31949;51.404;-0.038;2023-07-13T16:14:06;22.60;99.90
46231;DHT22;31949;51.404;-0.038;2023-07-13T16:16:34;22.60;99.90
46231;DHT22;31949;51.404;-0.038;2023-07-13T16:19:03;22.40;99.90
46231;DHT22;31949;51.404;-0.038;2023-07-13T16:21:35;22.40;99.90
46231;DHT22;31949;51.404;-0.038;2023-07-13T16:24:05;22.30;99.90
46231;DHT22;31949;51.404;-0.038;2023-07-13T16:26:35;22.20;99.90
46231;DHT22;31949;51.404;-0.038;2023-07-13T16:29:33;21.90;99.90
46231;DHT22;31949;51.404;-0.038;2023-07-13T16:32:12;21.80;99.90
46231;DHT22;31949;51.404;-0.038;2023-07-13T16:34:41;21.70;99.90